Time;durP1;ratioP1;P1;durP2;ratioP2;P2;SDS_P1;SDS_P2;PMS_P1;PMS_P2;Temp;Humidity;BMP_temperature;BMP_pressure;BME280_temperature;BME280_humidity;BME280_pressure;Samples;Min_cycle;Max_cycle;Signal;HPM_P1;HPM_P2
2022/08/29 00:00:26;;;;;;;1.77;1.30;;;;;;;;;;5031465;28;20193;-72
2022/08/29 00:02:52;;;;;;;3.90;1.45;;;;;;;;;;5021675;28;20543;-72
2022/08/29 00:05:20;;;;;;;3.30;1.20;;;;;;;;;;5032010;28;20185;-72
2022/08/29 00:07:45;;;;;;;2.10;1.48;;;;;;;;;;5031771;28;20590;-72
2022/08/29 00:10:11;;;;;;;1.60;1.08;;;;;;;;;;5032844;28;20177;-72
2022/08/29 00:12:36;;;;;;;2.83;1.42;;;;;;;;;;5031824;28;20194;-72
2022/08/29 00:15:03;;;;;;;1.85;1.13;;;;;;;;;;5030764;28;20202;-71
2022/08/29 00:17:28;;;;;;;2.08;1.27;;;;;;;;;;5020657;28;20181;-73
2022/08/29 00:19:53;;;;;;;1.30;1.20;;;;;;;;;;5027082;28;20520;-72
2022/08/29 00:22:18;;;;;;;2.33;1.10;;;;;;;;;;5029824;28;20178;-72
2022/08/29 00:24:43;;;;;;;1.40;1.10;;;;;;;;;;5031912;28;20202;-72
2022/08/29 00:27:08;;;;;;;2.95;1.42;;;;;;;;;;5014158;28;20621;-72
2022/08/29 00:29:34;;;;;;;2.13;1.20;;;;;;;;;;5033014;28;20719;-72
2022/08/29 00:31:59;;;;;;;1.50;1.20;;;;;;;;;;5031485;28;20731;-72
2022/08/29 00:34:24;;;;;;;2.03;1.05;;;;;;;;;;5030622;28;20259;-72
2022/08/29 00:36:50;;;;;;;3.42;1.48;;;;;;;;;;5021973;28;20237;-72
2022/08/29 00:39:16;;;;;;;2.28;1.02;;;;;;;;;;5028015;28;20178;-72
2022/08/29 00:41:41;;;;;;;2.78;1.13;;;;;;;;;;5029722;28;20182;-72
2022/08/29 00:44:06;;;;;;;3.00;1.08;;;;;;;;;;5030400;28;20206;-72
2022/08/29 00:47:03;;;;;;;1.98;1.25;;;;;;;;;;5030981;28;20318;-73
2022/08/29 00:49:40;;;;;;;1.73;1.15;;;;;;;;;;4997392;28;20237;-73
2022/08/29 00:52:24;;;;;;;1.33;1.15;;;;;;;;;;5031022;28;20174;-72
2022/08/29 00:54:50;;;;;;;3.42;1.45;;;;;;;;;;5023614;28;20683;-72
2022/08/29 00:57:19;;;;;;;4.18;1.75;;;;;;;;;;5027001;28;20236;-71
2022/08/29 00:59:45;;;;;;;1.60;1.13;;;;;;;;;;5025960;28;20171;-73
2022/08/29 01:02:10;;;;;;;3.70;1.27;;;;;;;;;;5030017;28;20171;-72
2022/08/29 01:04:36;;;;;;;3.10;1.20;;;;;;;;;;5030356;28;20651;-72
2022/08/29 01:07:02;;;;;;;2.15;1.20;;;;;;;;;;5031450;28;20544;-72
2022/08/29 01:09:27;;;;;;;2.42;1.10;;;;;;;;;;5031436;28;20292;-72
2022/08/29 01:14:37;;;;;;;5.68;2.03;;;;;;;;;;5022232;28;20291;-73
2022/08/29 01:17:03;;;;;;;1.73;1.23;;;;;;;;;;5030075;28;20261;-72
2022/08/29 01:19:44;;;;;;;7.25;3.75;;;;;;;;;;5015163;28;20460;-72
2022/08/29 01:22:10;;;;;;;5.05;2.67;;;;;;;;;;5005982;28;20187;-73
2022/08/29 01:24:38;;;;;;;3.78;2.10;;;;;;;;;;5030626;28;20802;-72
2022/08/29 01:27:03;;;;;;;3.55;2.05;;;;;;;;;;5031409;28;20647;-73
2022/08/29 01:29:28;;;;;;;2.33;1.42;;;;;;;;;;5029551;28;20206;-72
2022/08/29 01:31:54;;;;;;;3.03;1.45;;;;;;;;;;5011573;28;20181;-72
2022/08/29 01:34:22;;;;;;;2.88;1.50;;;;;;;;;;5028060;28;20202;-72
2022/08/29 01:36:50;;;;;;;3.20;1.95;;;;;;;;;;5018577;28;20260;-74
2022/08/29 01:39:19;;;;;;;3.13;2.22;;;;;;;;;;5031086;28;20264;-74
2022/08/29 01:41:44;;;;;;;3.70;2.30;;;;;;;;;;5030857;28;20178;-75
2022/08/29 01:44:11;;;;;;;3.33;2.00;;;;;;;;;;5012936;28;20204;-74
2022/08/29 01:46:36;;;;;;;2.67;1.73;;;;;;;;;;5027944;28;20634;-74
2022/08/29 01:49:03;;;;;;;4.15;1.52;;;;;;;;;;5030918;28;20297;-73
2022/08/29 01:51:28;;;;;;;3.40;1.63;;;;;;;;;;5027656;28;20187;-73
2022/08/29 01:53:53;;;;;;;3.40;1.48;;;;;;;;;;5019674;28;20217;-74
2022/08/29 01:56:20;;;;;;;1.98;1.35;;;;;;;;;;5030540;28;20166;-73
2022/08/29 01:58:46;;;;;;;3.20;1.40;;;;;;;;;;5026251;28;20237;-74
2022/08/29 02:01:14;;;;;;;2.63;1.70;;;;;;;;;;5030176;28;20216;-74
2022/08/29 02:03:39;;;;;;;4.20;1.70;;;;;;;;;;5010397;28;20297;-73
2022/08/29 02:06:04;;;;;;;2.67;1.50;;;;;;;;;;5013154;28;20194;-74
2022/08/29 02:08:30;;;;;;;2.25;1.55;;;;;;;;;;5025025;28;20194;-74
2022/08/29 02:10:55;;;;;;;3.08;1.67;;;;;;;;;;5019459;28;20217;-74
2022/08/29 02:13:23;;;;;;;3.33;1.58;;;;;;;;;;5026587;28;20197;-74
2022/08/29 02:15:48;;;;;;;2.55;1.55;;;;;;;;;;5029797;28;20174;-74
2022/08/29 02:18:13;;;;;;;3.20;1.67;;;;;;;;;;5011236;28;20179;-74
2022/08/29 02:20:38;;;;;;;1.83;1.58;;;;;;;;;;5029685;28;20209;-74
2022/08/29 02:23:04;;;;;;;2.83;1.48;;;;;;;;;;5024725;28;20201;-74
2022/08/29 02:25:41;;;;;;;5.25;1.65;;;;;;;;;;5002040;28;20178;-73
2022/08/29 02:28:09;;;;;;;2.53;1.60;;;;;;;;;;5030005;28;20211;-73
2022/08/29 02:30:35;;;;;;;3.65;1.30;;;;;;;;;;5027576;28;20171;-74
2022/08/29 02:33:00;;;;;;;2.85;1.60;;;;;;;;;;5028354;28;20195;-74
2022/08/29 02:35:25;;;;;;;2.88;1.50;;;;;;;;;;5028837;28;20178;-73
2022/08/29 02:37:51;;;;;;;2.65;1.92;;;;;;;;;;5028340;28;20190;-73
2022/08/29 02:40:16;;;;;;;3.83;1.85;;;;;;;;;;5029251;28;20257;-74
2022/08/29 02:42:41;;;;;;;3.33;1.70;;;;;;;;;;5028843;28;20674;-74
2022/08/29 02:45:07;;;;;;;3.30;1.67;;;;;;;;;;5029590;28;20185;-74
2022/08/29 02:47:35;;;;;;;2.05;1.48;;;;;;;;;;5028027;28;20210;-75
2022/08/29 02:50:02;;;;;;;2.17;1.80;;;;;;;;;;5029104;28;20178;-73
2022/08/29 02:52:28;;;;;;;3.67;2.10;;;;;;;;;;5030025;28;20236;-73
2022/08/29 02:54:53;;;;;;;3.40;1.98;;;;;;;;;;5029227;28;20430;-74
2022/08/29 02:57:18;;;;;;;2.88;1.65;;;;;;;;;;5028123;28;20197;-74
2022/08/29 02:59:43;;;;;;;9.77;4.38;;;;;;;;;;5028619;28;20185;-75
2022/08/29 03:02:08;;;;;;;3.35;1.65;;;;;;;;;;5026974;28;20269;-74
2022/08/29 03:04:34;;;;;;;2.92;2.03;;;;;;;;;;5023020;28;20676;-74
2022/08/29 03:06:59;;;;;;;2.33;1.67;;;;;;;;;;5020052;28;20574;-74
2022/08/29 03:09:24;;;;;;;3.17;1.90;;;;;;;;;;5033449;28;20202;-74
2022/08/29 03:11:53;;;;;;;3.22;1.67;;;;;;;;;;5032703;28;20645;-74
2022/08/29 03:14:19;;;;;;;5.28;2.05;;;;;;;;;;5014975;28;20197;-74
2022/08/29 03:16:44;;;;;;;3.60;1.90;;;;;;;;;;5032486;28;20186;-73
2022/08/29 03:19:09;;;;;;;2.10;1.48;;;;;;;;;;5032476;28;20186;-73
2022/08/29 03:21:34;;;;;;;3.30;1.95;;;;;;;;;;5030159;28;20269;-74
2022/08/29 03:23:59;;;;;;;3.85;2.20;;;;;;;;;;5016362;28;20208;-74
2022/08/29 03:26:25;;;;;;;2.58;1.70;;;;;;;;;;5031117;28;20185;-74
2022/08/29 03:28:50;;;;;;;2.75;2.00;;;;;;;;;;5014148;28;20213;-73
2022/08/29 03:31:15;;;;;;;2.47;2.00;;;;;;;;;;5032544;28;20185;-74
2022/08/29 03:33:40;;;;;;;3.58;1.90;;;;;;;;;;5031767;28;20191;-74
2022/08/29 03:36:07;;;;;;;3.78;2.28;;;;;;;;;;5032379;28;20174;-74
2022/08/29 03:38:34;;;;;;;5.65;2.80;;;;;;;;;;5032900;28;20673;-74
2022/08/29 03:40:59;;;;;;;4.47;2.42;;;;;;;;;;5023126;28;20493;-74
2022/08/29 03:43:24;;;;;;;2.65;1.92;;;;;;;;;;5027143;28;20627;-74
2022/08/29 03:45:50;;;;;;;8.38;3.85;;;;;;;;;;5034346;28;20202;-74
2022/08/29 03:48:15;;;;;;;4.63;2.58;;;;;;;;;;5031228;28;20210;-73
2022/08/29 03:50:40;;;;;;;4.38;2.45;;;;;;;;;;5033511;28;20197;-74
2022/08/29 03:53:06;;;;;;;2.92;2.05;;;;;;;;;;5013665;28;20687;-74
2022/08/29 03:55:31;;;;;;;2.85;2.30;;;;;;;;;;5032834;28;20209;-73
2022/08/29 03:57:56;;;;;;;2.58;2.30;;;;;;;;;;5030620;28;20178;-74
2022/08/29 04:00:22;;;;;;;2.55;2.17;;;;;;;;;;5031680;28;20563;-74
2022/08/29 04:02:48;;;;;;;3.38;2.03;;;;;;;;;;5031624;28;20564;-74
2022/08/29 04:05:14;;;;;;;2.42;2.03;;;;;;;;;;5014988;28;20224;-74
2022/08/29 04:07:42;;;;;;;2.88;1.85;;;;;;;;;;5029829;28;20312;-74
2022/08/29 04:10:09;;;;;;;2.80;2.50;;;;;;;;;;5036700;28;20249;-74
2022/08/29 04:12:34;;;;;;;3.25;2.40;;;;;;;;;;5011385;28;20187;-74
2022/08/29 04:14:59;;;;;;;3.25;2.75;;;;;;;;;;5031467;28;20198;-74
2022/08/29 04:17:24;;;;;;;4.43;2.60;;;;;;;;;;5029912;28;20236;-73
2022/08/29 04:19:50;;;;;;;3.90;2.25;;;;;;;;;;5016238;28;20278;-73
2022/08/29 04:22:15;;;;;;;3.28;2.33;;;;;;;;;;5007766;28;20577;-74
2022/08/29 04:24:40;;;;;;;4.47;2.83;;;;;;;;;;5031772;28;20245;-74
2022/08/29 04:27:05;;;;;;;4.65;2.70;;;;;;;;;;5028987;28;20206;-73
2022/08/29 04:29:32;;;;;;;4.20;2.53;;;;;;;;;;5029731;28;20213;-73
2022/08/29 04:31:57;;;;;;;4.55;3.08;;;;;;;;;;5029952;28;20179;-74
2022/08/29 04:34:23;;;;;;;3.47;2.80;;;;;;;;;;5021955;28;20206;-74
2022/08/29 04:36:48;;;;;;;4.18;2.33;;;;;;;;;;5012914;28;20235;-73
2022/08/29 04:39:13;;;;;;;4.57;3.03;;;;;;;;;;5013289;28;20174;-74
2022/08/29 04:41:38;;;;;;;3.53;2.05;;;;;;;;;;5030720;28;20273;-73
2022/08/29 04:44:04;;;;;;;3.95;2.00;;;;;;;;;;5028426;28;20206;-74
2022/08/29 04:46:30;;;;;;;3.63;1.88;;;;;;;;;;5030811;28;20186;-73
2022/08/29 04:48:55;;;;;;;4.15;2.10;;;;;;;;;;5029249;28;20613;-74
2022/08/29 04:51:21;;;;;;;2.78;1.95;;;;;;;;;;5013893;28;20253;-74
2022/08/29 04:53:47;;;;;;;2.92;2.17;;;;;;;;;;5031630;28;20202;-74
2022/08/29 04:56:12;;;;;;;2.45;2.00;;;;;;;;;;5031645;28;20181;-74
2022/08/29 04:58:40;;;;;;;4.28;2.20;;;;;;;;;;5027876;28;20182;-73
2022/08/29 05:01:05;;;;;;;3.30;2.20;;;;;;;;;;5028196;28;20180;-74
2022/08/29 05:03:31;;;;;;;6.18;2.60;;;;;;;;;;5039080;22;20226;-70
2022/08/29 05:06:01;;;;;;;3.67;2.30;;;;;;;;;;5010412;28;20185;-70
2022/08/29 05:08:26;;;;;;;4.55;2.97;;;;;;;;;;5009852;28;20220;-68
2022/08/29 05:10:52;;;;;;;4.45;2.20;;;;;;;;;;5011574;28;20181;-68
2022/08/29 05:13:17;;;;;;;4.13;2.10;;;;;;;;;;5009731;28;20321;-69
2022/08/29 05:15:43;;;;;;;2.88;2.05;;;;;;;;;;5009405;28;20175;-68
2022/08/29 05:18:09;;;;;;;4.60;2.30;;;;;;;;;;5007677;28;20601;-68
2022/08/29 05:20:34;;;;;;;3.42;2.38;;;;;;;;;;5008590;28;20222;-69
2022/08/29 05:22:59;;;;;;;3.47;2.30;;;;;;;;;;5007807;28;20185;-69
2022/08/29 05:25:24;;;;;;;3.10;1.98;;;;;;;;;;5005776;28;20588;-69
2022/08/29 05:27:50;;;;;;;3.00;2.00;;;;;;;;;;5006172;28;20622;-68
2022/08/29 05:30:16;;;;;;;3.75;2.05;;;;;;;;;;5001224;28;20637;-68
2022/08/29 05:32:41;;;;;;;4.63;2.38;;;;;;;;;;5004101;28;20655;-68
2022/08/29 05:35:07;;;;;;;2.03;1.83;;;;;;;;;;4999304;28;20205;-69
2022/08/29 05:37:32;;;;;;;4.47;1.88;;;;;;;;;;4997870;28;20242;-70
2022/08/29 05:39:57;;;;;;;3.67;2.20;;;;;;;;;;4991873;28;20262;-70
2022/08/29 05:42:23;;;;;;;3.35;2.08;;;;;;;;;;5006824;28;20226;-70
2022/08/29 05:44:48;;;;;;;4.70;1.83;;;;;;;;;;5009405;28;20664;-68
2022/08/29 05:47:14;;;;;;;2.65;1.80;;;;;;;;;;5008596;28;20214;-68
2022/08/29 05:49:41;;;;;;;3.47;1.60;;;;;;;;;;5008780;28;20187;-70
2022/08/29 05:52:06;;;;;;;3.38;1.85;;;;;;;;;;5009677;28;20234;-70
2022/08/29 05:54:33;;;;;;;3.10;2.45;;;;;;;;;;5008530;28;20195;-70
2022/08/29 05:56:58;;;;;;;3.03;2.20;;;;;;;;;;4997397;28;20191;-70
2022/08/29 05:59:23;;;;;;;2.88;1.88;;;;;;;;;;5009464;28;20333;-69
2022/08/29 06:01:49;;;;;;;2.08;1.63;;;;;;;;;;4997636;28;20186;-69
2022/08/29 06:04:14;;;;;;;5.70;2.00;;;;;;;;;;5007436;28;20210;-69
2022/08/29 06:06:39;;;;;;;2.88;2.15;;;;;;;;;;5006458;28;20183;-69
2022/08/29 06:09:05;;;;;;;4.78;1.85;;;;;;;;;;5006968;28;20195;-69
2022/08/29 06:11:31;;;;;;;2.58;1.75;;;;;;;;;;5008525;28;20183;-69
2022/08/29 06:13:58;;;;;;;2.72;1.92;;;;;;;;;;5008276;28;20265;-69
2022/08/29 06:16:23;;;;;;;4.10;2.15;;;;;;;;;;5010274;28;20605;-69
2022/08/29 06:18:49;;;;;;;4.07;1.60;;;;;;;;;;5009220;28;20254;-69
2022/08/29 06:21:14;;;;;;;6.05;1.80;;;;;;;;;;5009199;28;20265;-69
2022/08/29 06:23:40;;;;;;;3.90;1.80;;;;;;;;;;5006854;28;20542;-68
2022/08/29 06:26:06;;;;;;;4.18;2.22;;;;;;;;;;5002998;28;20237;-69
2022/08/29 06:28:33;;;;;;;2.80;1.60;;;;;;;;;;5008240;28;20207;-68
2022/08/29 06:31:05;;;;;;;4.65;2.03;;;;;;;;;;5003015;28;20169;-68
2022/08/29 06:33:30;;;;;;;2.53;1.92;;;;;;;;;;5009888;28;20244;-68
2022/08/29 06:35:55;;;;;;;3.28;1.90;;;;;;;;;;5010156;28;20665;-69
2022/08/29 06:38:21;;;;;;;2.60;1.70;;;;;;;;;;5002774;28;20270;-68
2022/08/29 06:40:46;;;;;;;5.63;2.20;;;;;;;;;;5008167;28;20179;-69
2022/08/29 06:43:11;;;;;;;3.53;2.10;;;;;;;;;;5000523;28;20844;-69
2022/08/29 06:45:41;;;;;;;5.72;2.05;;;;;;;;;;5008763;28;20244;-68
2022/08/29 06:48:06;;;;;;;3.35;1.75;;;;;;;;;;5013656;28;20210;-68
2022/08/29 06:50:34;;;;;;;2.72;1.98;;;;;;;;;;5014080;28;20167;-68
2022/08/29 06:52:59;;;;;;;5.82;2.13;;;;;;;;;;5013711;28;20179;-68
2022/08/29 06:55:24;;;;;;;4.30;1.70;;;;;;;;;;5012441;28;20298;-69
2022/08/29 06:57:49;;;;;;;5.00;2.20;;;;;;;;;;5012437;28;20420;-69
2022/08/29 07:00:14;;;;;;;4.87;1.90;;;;;;;;;;5009573;28;20179;-69
2022/08/29 07:02:40;;;;;;;6.07;2.53;;;;;;;;;;5001801;28;20432;-69
2022/08/29 07:05:06;;;;;;;4.25;2.25;;;;;;;;;;5017980;28;20214;-69
2022/08/29 07:07:32;;;;;;;3.58;2.47;;;;;;;;;;5015558;28;20179;-69
2022/08/29 07:09:58;;;;;;;3.38;1.90;;;;;;;;;;5010789;28;20200;-69
2022/08/29 07:12:23;;;;;;;4.93;2.58;;;;;;;;;;5008413;28;20555;-69
2022/08/29 07:14:48;;;;;;;4.47;2.53;;;;;;;;;;5015720;28;20217;-69
2022/08/29 07:17:14;;;;;;;6.05;2.42;;;;;;;;;;5014760;28;20471;-70
2022/08/29 07:19:39;;;;;;;4.43;2.15;;;;;;;;;;5013110;28;20214;-69
2022/08/29 07:22:05;;;;;;;3.40;2.15;;;;;;;;;;5011062;28;20179;-70
2022/08/29 07:24:31;;;;;;;4.22;2.17;;;;;;;;;;5012866;28;20252;-69
2022/08/29 07:26:56;;;;;;;4.60;2.55;;;;;;;;;;5011930;28;20179;-70
2022/08/29 07:29:22;;;;;;;4.10;1.80;;;;;;;;;;5013423;28;20195;-70
2022/08/29 07:31:47;;;;;;;5.80;3.22;;;;;;;;;;5009493;28;20171;-70
2022/08/29 07:34:12;;;;;;;3.80;2.28;;;;;;;;;;5012832;28;20222;-69
2022/08/29 07:36:38;;;;;;;6.07;2.33;;;;;;;;;;4999741;28;20183;-68
2022/08/29 07:39:05;;;;;;;4.07;2.25;;;;;;;;;;5015617;28;20266;-69
2022/08/29 07:41:31;;;;;;;3.20;2.00;;;;;;;;;;5018212;28;20275;-69
2022/08/29 07:43:56;;;;;;;5.70;2.93;;;;;;;;;;5022715;28;20229;-69
2022/08/29 07:46:21;;;;;;;3.10;2.40;;;;;;;;;;5018903;28;21194;-69
2022/08/29 07:48:47;;;;;;;4.53;2.50;;;;;;;;;;5007026;28;20459;-69
2022/08/29 07:51:14;;;;;;;3.60;2.67;;;;;;;;;;5010168;28;20174;-69
2022/08/29 07:53:40;;;;;;;7.07;3.58;;;;;;;;;;5010810;28;20625;-69
2022/08/29 07:56:10;;;;;;;6.78;3.00;;;;;;;;;;5012497;28;20171;-69
2022/08/29 07:58:36;;;;;;;3.30;2.05;;;;;;;;;;5010879;28;20216;-69
2022/08/29 08:01:02;;;;;;;5.78;2.55;;;;;;;;;;5011851;28;20330;-69
2022/08/29 08:03:28;;;;;;;4.85;2.97;;;;;;;;;;5013743;28;20183;-69
2022/08/29 08:05:53;;;;;;;6.90;2.70;;;;;;;;;;5012334;28;20566;-69
2022/08/29 08:08:18;;;;;;;6.40;2.60;;;;;;;;;;5012568;28;20199;-69
2022/08/29 08:10:44;;;;;;;4.97;2.72;;;;;;;;;;5011364;28;20792;-70
2022/08/29 08:13:09;;;;;;;4.78;1.95;;;;;;;;;;5012601;28;20270;-70
2022/08/29 08:15:36;;;;;;;3.35;2.33;;;;;;;;;;5012452;28;20203;-69
2022/08/29 08:18:01;;;;;;;3.40;2.13;;;;;;;;;;5012711;28;20183;-69
2022/08/29 08:20:26;;;;;;;4.87;2.43;;;;;;;;;;5008608;28;20175;-70
2022/08/29 08:22:51;;;;;;;6.60;3.43;;;;;;;;;;5012748;28;21014;-69
2022/08/29 08:25:17;;;;;;;5.10;2.63;;;;;;;;;;5012899;28;20444;-68
2022/08/29 08:27:42;;;;;;;4.57;2.50;;;;;;;;;;5010290;28;20424;-68
2022/08/29 08:30:07;;;;;;;4.40;2.33;;;;;;;;;;5016512;28;20194;-68
2022/08/29 08:32:33;;;;;;;6.13;2.53;;;;;;;;;;5014344;28;20275;-68
2022/08/29 08:34:58;;;;;;;4.33;2.00;;;;;;;;;;4988368;28;20194;-68
2022/08/29 08:37:23;;;;;;;4.83;2.33;;;;;;;;;;5012012;28;20503;-68
2022/08/29 08:39:48;;;;;;;4.57;2.53;;;;;;;;;;5013707;28;20412;-68
2022/08/29 08:42:19;;;;;;;4.70;2.33;;;;;;;;;;5010871;28;20423;-68
2022/08/29 08:44:59;;;;;;;5.88;3.22;;;;;;;;;;5011934;28;20222;-68
2022/08/29 08:47:27;;;;;;;4.60;2.55;;;;;;;;;;5015504;28;20213;-68
2022/08/29 08:49:55;;;;;;;3.40;2.10;;;;;;;;;;5005040;28;20707;-68
2022/08/29 08:52:33;;;;;;;4.68;2.60;;;;;;;;;;5011019;28;20621;-68
2022/08/29 08:55:00;;;;;;;3.35;1.88;;;;;;;;;;5004278;28;20274;-68
2022/08/29 08:57:30;;;;;;;3.80;2.45;;;;;;;;;;4999986;28;20185;-68
2022/08/29 08:59:57;;;;;;;4.60;2.38;;;;;;;;;;5003569;28;20190;-68
2022/08/29 09:02:41;;;;;;;7.43;2.30;;;;;;;;;;5008735;28;20229;-68
2022/08/29 09:05:18;;;;;;;4.75;2.78;;;;;;;;;;5014427;28;20214;-69
2022/08/29 09:07:46;;;;;;;5.55;2.42;;;;;;;;;;5008832;28;20183;-68
2022/08/29 09:10:15;;;;;;;3.28;2.28;;;;;;;;;;5009305;28;20202;-69
2022/08/29 09:12:57;;;;;;;5.03;2.55;;;;;;;;;;5006451;28;20233;-69
2022/08/29 09:15:27;;;;;;;5.20;2.30;;;;;;;;;;5011469;28;20246;-69
2022/08/29 09:17:59;;;;;;;5.18;2.70;;;;;;;;;;5010446;28;20590;-69
2022/08/29 09:20:27;;;;;;;4.45;2.67;;;;;;;;;;5007043;28;20548;-69
2022/08/29 09:23:04;;;;;;;5.25;1.98;;;;;;;;;;5010222;28;20217;-69
2022/08/29 09:25:30;;;;;;;4.20;2.65;;;;;;;;;;5009616;28;20229;-69
2022/08/29 09:27:58;;;;;;;5.32;2.60;;;;;;;;;;5003057;28;20179;-69
2022/08/29 09:30:26;;;;;;;4.25;2.25;;;;;;;;;;5009338;28;20265;-69
2022/08/29 09:32:51;;;;;;;4.53;2.20;;;;;;;;;;5011552;28;20225;-69
2022/08/29 09:35:19;;;;;;;4.87;2.17;;;;;;;;;;5008853;28;20595;-69
2022/08/29 09:37:53;;;;;;;4.13;1.95;;;;;;;;;;5004673;28;20464;-69
2022/08/29 09:40:19;;;;;;;2.45;1.77;;;;;;;;;;5000548;28;20258;-69
2022/08/29 09:42:48;;;;;;;3.85;1.73;;;;;;;;;;5009858;28;20524;-69
2022/08/29 09:45:18;;;;;;;3.42;2.05;;;;;;;;;;5000309;28;20555;-69
2022/08/29 09:47:44;;;;;;;5.47;2.08;;;;;;;;;;5003036;28;20175;-68
2022/08/29 09:50:09;;;;;;;3.50;1.88;;;;;;;;;;5008485;28;20578;-68
2022/08/29 09:52:36;;;;;;;2.90;2.10;;;;;;;;;;5002472;28;20669;-68
2022/08/29 09:55:22;;;;;;;2.75;1.80;;;;;;;;;;5004423;28;20593;-69
2022/08/29 09:58:03;;;;;;;4.20;1.73;;;;;;;;;;5009785;28;20704;-69
2022/08/29 10:00:31;;;;;;;3.60;1.70;;;;;;;;;;5010071;28;20175;-69
2022/08/29 10:03:00;;;;;;;3.35;2.00;;;;;;;;;;5007053;28;20167;-69
2022/08/29 10:05:28;;;;;;;2.85;1.88;;;;;;;;;;5000803;28;20208;-69
2022/08/29 10:07:53;;;;;;;2.75;1.83;;;;;;;;;;5008359;28;20186;-69
2022/08/29 10:10:23;;;;;;;2.90;1.77;;;;;;;;;;5001848;28;20176;-69
2022/08/29 10:12:48;;;;;;;2.58;1.88;;;;;;;;;;5007553;28;20442;-69
2022/08/29 10:15:28;;;;;;;2.87;1.83;;;;;;;;;;5003563;28;20191;-69
2022/08/29 10:18:19;;;;;;;2.58;1.55;;;;;;;;;;5004144;28;20171;-69
2022/08/29 10:21:00;;;;;;;3.28;1.67;;;;;;;;;;5003598;28;20191;-69
2022/08/29 10:23:30;;;;;;;3.05;1.95;;;;;;;;;;4986524;28;20649;-69
2022/08/29 10:25:57;;;;;;;3.85;1.70;;;;;;;;;;5008307;28;20570;-69
2022/08/29 10:28:38;;;;;;;3.33;1.77;;;;;;;;;;5007553;28;20634;-69
2022/08/29 10:31:03;;;;;;;3.33;2.53;;;;;;;;;;5008879;28;20167;-69
2022/08/29 10:33:40;;;;;;;2.37;1.90;;;;;;;;;;5009997;28;20330;-69
2022/08/29 10:36:21;;;;;;;3.47;1.83;;;;;;;;;;5008746;28;20174;-70
2022/08/29 10:39:15;;;;;;;2.47;1.52;;;;;;;;;;5002350;28;20175;-69
2022/08/29 10:41:44;;;;;;;2.80;1.92;;;;;;;;;;4944275;28;20229;-69
2022/08/29 10:44:22;;;;;;;5.80;2.13;;;;;;;;;;5011076;28;20431;-69
2022/08/29 10:46:59;;;;;;;3.05;1.80;;;;;;;;;;5008406;28;20185;-69
2022/08/29 10:49:43;;;;;;;3.40;2.05;;;;;;;;;;5007320;28;20567;-68
2022/08/29 10:52:25;;;;;;;3.50;1.90;;;;;;;;;;5010449;28;20171;-69
2022/08/29 10:54:53;;;;;;;2.95;1.70;;;;;;;;;;5010059;28;20218;-69
2022/08/29 10:57:37;;;;;;;4.93;2.03;;;;;;;;;;5005617;28;20168;-70
2022/08/29 11:00:11;;;;;;;3.15;1.80;;;;;;;;;;4986821;28;20695;-70
2022/08/29 11:02:55;;;;;;;4.97;2.10;;;;;;;;;;5003745;28;20183;-70
2022/08/29 11:05:23;;;;;;;3.80;2.22;;;;;;;;;;5040236;23;20283;-72
2022/08/29 11:07:55;;;;;;;4.35;2.42;;;;;;;;;;5031960;28;20362;-74
2022/08/29 11:10:23;;;;;;;2.95;1.90;;;;;;;;;;5030870;28;20199;-72
2022/08/29 11:12:55;;;;;;;6.82;1.73;;;;;;;;;;5030618;28;20632;-74
2022/08/29 11:15:23;;;;;;;3.45;2.17;;;;;;;;;;5003915;28;20553;-73
2022/08/29 11:17:55;;;;;;;2.90;1.92;;;;;;;;;;5011131;28;20167;-72
2022/08/29 11:20:27;;;;;;;2.53;2.00;;;;;;;;;;5005015;28;20194;-72
2022/08/29 11:22:59;;;;;;;2.70;2.05;;;;;;;;;;5009021;28;20645;-73
2022/08/29 11:25:24;;;;;;;2.92;1.70;;;;;;;;;;5015679;28;20254;-72
2022/08/29 11:27:57;;;;;;;3.70;2.08;;;;;;;;;;5011061;28;20706;-72
2022/08/29 11:30:35;;;;;;;3.38;2.00;;;;;;;;;;4994605;28;20578;-73
2022/08/29 11:33:19;;;;;;;3.50;2.10;;;;;;;;;;5014582;28;20189;-72
2022/08/29 11:35:54;;;;;;;4.65;2.70;;;;;;;;;;5007206;28;20191;-74
2022/08/29 11:38:38;;;;;;;4.45;2.20;;;;;;;;;;5013671;28;20206;-71
2022/08/29 11:41:13;;;;;;;3.67;1.90;;;;;;;;;;5014379;28;20171;-73
2022/08/29 11:43:41;;;;;;;3.58;2.25;;;;;;;;;;5012965;28;20261;-73
2022/08/29 11:46:08;;;;;;;2.50;1.77;;;;;;;;;;5014151;28;20218;-74
2022/08/29 11:48:33;;;;;;;3.67;1.35;;;;;;;;;;5014326;28;20198;-71
2022/08/29 11:51:19;;;;;;;2.80;1.85;;;;;;;;;;4999864;28;20694;-73
2022/08/29 11:53:44;;;;;;;3.90;1.85;;;;;;;;;;5010730;28;20175;-73
2022/08/29 11:56:12;;;;;;;2.53;1.90;;;;;;;;;;5013333;28;20171;-75
2022/08/29 11:58:41;;;;;;;2.95;1.77;;;;;;;;;;5014496;28;20483;-74
2022/08/29 12:01:11;;;;;;;3.92;1.73;;;;;;;;;;5013170;28;20187;-73
2022/08/29 12:03:36;;;;;;;3.15;1.83;;;;;;;;;;5003963;28;20171;-74
2022/08/29 12:06:04;;;;;;;3.73;1.80;;;;;;;;;;5014354;28;20190;-72
2022/08/29 12:08:37;;;;;;;2.78;1.80;;;;;;;;;;5014100;28;20230;-72
2022/08/29 12:11:03;;;;;;;3.85;1.92;;;;;;;;;;5011551;28;20191;-74
2022/08/29 12:13:46;;;;;;;2.60;1.80;;;;;;;;;;5014873;28;20192;-73
2022/08/29 12:16:13;;;;;;;3.60;2.00;;;;;;;;;;5013866;28;20190;-72
2022/08/29 12:18:46;;;;;;;3.47;2.30;;;;;;;;;;5012791;28;20179;-73
2022/08/29 12:21:30;;;;;;;5.50;2.08;;;;;;;;;;5013567;28;20167;-73
2022/08/29 12:23:55;;;;;;;2.33;1.52;;;;;;;;;;5012849;28;20224;-73
2022/08/29 12:26:40;;;;;;;3.75;1.90;;;;;;;;;;5013416;28;20257;-73
2022/08/29 12:29:05;;;;;;;3.83;2.00;;;;;;;;;;5002889;28;20253;-73
2022/08/29 12:31:37;;;;;;;6.53;2.53;;;;;;;;;;5012517;28;20167;-73
2022/08/29 12:34:11;;;;;;;3.40;2.10;;;;;;;;;;5013600;28;20556;-72
2022/08/29 12:36:55;;;;;;;3.40;1.83;;;;;;;;;;5012921;28;20183;-72
2022/08/29 12:39:20;;;;;;;3.25;2.40;;;;;;;;;;5013129;28;20171;-72
2022/08/29 12:41:51;;;;;;;3.77;2.10;;;;;;;;;;5011853;28;20179;-72
2022/08/29 12:44:21;;;;;;;4.07;2.15;;;;;;;;;;5013596;28;20202;-73
2022/08/29 12:46:49;;;;;;;3.25;1.75;;;;;;;;;;5006831;28;20206;-74
2022/08/29 12:49:17;;;;;;;2.70;1.65;;;;;;;;;;5012188;28;20191;-71
2022/08/29 12:51:46;;;;;;;2.85;2.05;;;;;;;;;;5011942;28;20675;-73
2022/08/29 12:54:11;;;;;;;3.47;1.65;;;;;;;;;;4995625;28;20195;-74
2022/08/29 12:56:41;;;;;;;8.00;1.73;;;;;;;;;;5012975;28;20189;-72
2022/08/29 12:59:14;;;;;;;3.80;1.70;;;;;;;;;;5011736;28;20456;-73
2022/08/29 13:01:45;;;;;;;4.72;1.80;;;;;;;;;;5012996;28;20217;-75
2022/08/29 13:04:10;;;;;;;2.60;1.90;;;;;;;;;;4994491;28;20580;-74
2022/08/29 13:06:36;;;;;;;2.85;1.50;;;;;;;;;;5019064;28;20174;-74
2022/08/29 13:09:03;;;;;;;1.90;1.30;;;;;;;;;;5012844;28;20602;-76
2022/08/29 13:11:29;;;;;;;1.88;1.25;;;;;;;;;;5013793;28;20529;-75
2022/08/29 13:14:05;;;;;;;2.00;1.25;;;;;;;;;;5012542;28;20186;-74
2022/08/29 13:16:30;;;;;;;3.53;1.40;;;;;;;;;;5012959;28;20169;-74
2022/08/29 13:18:56;;;;;;;2.92;1.67;;;;;;;;;;5012423;28;20179;-73
2022/08/29 13:21:25;;;;;;;4.37;1.57;;;;;;;;;;5007538;28;20183;-74
2022/08/29 13:24:01;;;;;;;2.05;1.27;;;;;;;;;;5003510;28;20456;-74
2022/08/29 13:26:31;;;;;;;2.40;1.40;;;;;;;;;;5012007;28;20202;-74
2022/08/29 13:28:57;;;;;;;2.78;1.65;;;;;;;;;;5012436;28;20282;-75
2022/08/29 13:31:31;;;;;;;4.80;1.60;;;;;;;;;;4993678;28;20175;-75
2022/08/29 13:33:56;;;;;;;2.28;1.42;;;;;;;;;;5018053;28;20571;-74
2022/08/29 13:36:40;;;;;;;2.77;1.40;;;;;;;;;;5011617;28;20183;-74
2022/08/29 13:39:15;;;;;;;1.98;1.23;;;;;;;;;;5008782;28;20657;-74
2022/08/29 13:41:41;;;;;;;2.25;1.35;;;;;;;;;;5010878;28;20197;-75
2022/08/29 13:44:14;;;;;;;2.38;1.55;;;;;;;;;;5012480;28;20271;-73
2022/08/29 13:46:45;;;;;;;2.08;1.80;;;;;;;;;;5011358;28;20186;-74
2022/08/29 13:49:16;;;;;;;6.82;1.55;;;;;;;;;;5011605;28;20202;-74
2022/08/29 13:51:41;;;;;;;2.85;1.65;;;;;;;;;;5010184;28;20171;-74
2022/08/29 13:54:07;;;;;;;3.40;1.57;;;;;;;;;;5011600;28;20200;-74
2022/08/29 13:56:32;;;;;;;4.90;1.50;;;;;;;;;;5011494;28;20182;-74
2022/08/29 13:58:57;;;;;;;1.90;1.17;;;;;;;;;;4990290;28;20202;-73
2022/08/29 14:01:23;;;;;;;3.60;1.57;;;;;;;;;;5011088;28;20233;-72
2022/08/29 14:03:48;;;;;;;3.33;1.70;;;;;;;;;;5012111;28;20463;-73
2022/08/29 14:06:15;;;;;;;3.42;1.70;;;;;;;;;;5012174;28;20267;-77
2022/08/29 14:08:41;;;;;;;2.65;1.42;;;;;;;;;;5011728;28;20692;-72
2022/08/29 14:11:06;;;;;;;2.90;1.30;;;;;;;;;;5010537;28;20296;-73
2022/08/29 14:13:31;;;;;;;5.03;1.47;;;;;;;;;;5011179;28;20185;-72
2022/08/29 14:15:56;;;;;;;4.40;1.97;;;;;;;;;;5011641;28;20511;-74
2022/08/29 14:18:22;;;;;;;2.33;1.60;;;;;;;;;;5012026;28;20412;-73
2022/08/29 14:20:47;;;;;;;3.30;1.38;;;;;;;;;;5012029;28;20874;-74
2022/08/29 14:23:12;;;;;;;3.57;1.63;;;;;;;;;;5018071;28;20194;-75
2022/08/29 14:25:37;;;;;;;2.92;1.23;;;;;;;;;;5020379;28;20202;-73
2022/08/29 14:28:03;;;;;;;2.40;1.40;;;;;;;;;;5017875;28;20185;-72
2022/08/29 14:30:29;;;;;;;3.00;1.50;;;;;;;;;;5015015;28;20179;-75
2022/08/29 14:32:54;;;;;;;1.40;1.05;;;;;;;;;;5016187;28;20171;-73
2022/08/29 14:35:19;;;;;;;1.85;1.35;;;;;;;;;;5013832;28;20186;-72
2022/08/29 14:37:45;;;;;;;2.30;1.08;;;;;;;;;;5013647;28;20617;-73
2022/08/29 14:40:10;;;;;;;1.92;1.30;;;;;;;;;;5012242;28;20207;-74
2022/08/29 14:42:36;;;;;;;2.05;1.02;;;;;;;;;;5012489;28;20550;-73
2022/08/29 14:45:01;;;;;;;2.83;1.17;;;;;;;;;;5021292;28;20672;-74
2022/08/29 14:47:26;;;;;;;4.25;1.30;;;;;;;;;;5016208;28;20183;-73
2022/08/29 14:49:51;;;;;;;2.05;1.30;;;;;;;;;;5013103;28;20290;-73